sensor_id;sensor_type;location;lat;lon;timestamp;P1;durP1;ratioP1;P2;durP2;ratioP2
38717;SDS011;24468;52.128;9.278;2023-07-31T00:00:13;1.73;;;0.98;;
38717;SDS011;24468;52.128;9.278;2023-07-31T00:02:39;1.10;;;0.73;;
38717;SDS011;24468;52.128;9.278;2023-07-31T00:05:04;1.23;;;0.82;;
38717;SDS011;24468;52.128;9.278;2023-07-31T00:07:31;1.65;;;0.90;;
38717;SDS011;24468;52.128;9.278;2023-07-31T00:09:57;1.10;;;0.70;;
38717;SDS011;24468;52.128;9.278;2023-07-31T00:12:23;4.10;;;1.13;;
38717;SDS011;24468;52.128;9.278;2023-07-31T00:14:48;2.25;;;0.68;;
38717;SDS011;24468;52.128;9.278;2023-07-31T00:17:14;1.02;;;0.80;;
38717;SDS011;24468;52.128;9.278;2023-07-31T00:19:40;1.52;;;0.80;;
38717;SDS011;24468;52.128;9.278;2023-07-31T00:22:05;0.90;;;0.65;;
38717;SDS011;24468;52.128;9.278;2023-07-31T00:24:31;1.08;;;0.70;;
38717;SDS011;24468;52.128;9.278;2023-07-31T00:26:56;0.80;;;0.60;;
38717;SDS011;24468;52.128;9.278;2023-07-31T00:29:22;2.08;;;0.60;;
38717;SDS011;24468;52.128;9.278;2023-07-31T00:31:47;1.67;;;0.88;;
38717;SDS011;24468;52.128;9.278;2023-07-31T00:34:13;1.67;;;0.50;;
38717;SDS011;24468;52.128;9.278;2023-07-31T00:36:39;0.95;;;0.55;;
38717;SDS011;24468;52.128;9.278;2023-07-31T00:39:04;1.75;;;0.52;;
38717;SDS011;24468;52.128;9.278;2023-07-31T00:41:30;1.52;;;0.80;;
38717;SDS011;24468;52.128;9.278;2023-07-31T00:43:55;2.05;;;0.35;;
38717;SDS011;24468;52.128;9.278;2023-07-31T00:46:21;0.38;;;0.38;;
38717;SDS011;24468;52.128;9.278;2023-07-31T00:48:46;1.70;;;0.73;;
38717;SDS011;24468;52.128;9.278;2023-07-31T00:51:12;1.67;;;0.50;;
38717;SDS011;24468;52.128;9.278;2023-07-31T00:53:38;0.50;;;0.43;;
38717;SDS011;24468;52.128;9.278;2023-07-31T00:56:05;0.45;;;0.25;;
38717;SDS011;24468;52.128;9.278;2023-07-31T00:58:31;1.17;;;0.43;;
38717;SDS011;24468;52.128;9.278;2023-07-31T01:00:56;0.75;;;0.40;;
38717;SDS011;24468;52.128;9.278;2023-07-31T01:03:22;0.20;;;0.20;;
38717;SDS011;24468;52.128;9.278;2023-07-31T01:08:50;0.20;;;0.10;;
38717;SDS011;24468;52.128;9.278;2023-07-31T01:11:30;0.10;;;0.10;;
38717;SDS011;24468;52.128;9.278;2023-07-31T01:13:59;0.30;;;0.20;;
38717;SDS011;24468;52.128;9.278;2023-07-31T01:16:26;1.00;;;0.22;;
38717;SDS011;24468;52.128;9.278;2023-07-31T01:18:51;0.30;;;0.10;;
38717;SDS011;24468;52.128;9.278;2023-07-31T01:21:21;0.80;;;0.20;;
38717;SDS011;24468;52.128;9.278;2023-07-31T01:24:05;0.20;;;0.10;;
38717;SDS011;24468;52.128;9.278;2023-07-31T01:27:06;0.45;;;0.20;;
38717;SDS011;24468;52.128;9.278;2023-07-31T01:35:07;0.50;;;0.10;;
38717;SDS011;24468;52.128;9.278;2023-07-31T01:37:33;0.80;;;0.20;;
38717;SDS011;24468;52.128;9.278;2023-07-31T01:39:59;2.10;;;0.30;;
38717;SDS011;24468;52.128;9.278;2023-07-31T01:42:24;0.40;;;0.28;;
38717;SDS011;24468;52.128;9.278;2023-07-31T01:44:50;0.38;;;0.25;;
38717;SDS011;24468;52.128;9.278;2023-07-31T01:47:15;1.13;;;0.40;;
38717;SDS011;24468;52.128;9.278;2023-07-31T01:49:41;1.95;;;0.30;;
38717;SDS011;24468;52.128;9.278;2023-07-31T01:52:07;1.40;;;0.45;;
38717;SDS011;24468;52.128;9.278;2023-07-31T01:54:32;1.08;;;0.38;;
38717;SDS011;24468;52.128;9.278;2023-07-31T01:56:58;1.75;;;0.35;;
38717;SDS011;24468;52.128;9.278;2023-07-31T01:59:24;2.33;;;0.43;;
38717;SDS011;24468;52.128;9.278;2023-07-31T02:01:49;0.52;;;0.38;;
38717;SDS011;24468;52.128;9.278;2023-07-31T02:04:15;1.00;;;0.55;;
38717;SDS011;24468;52.128;9.278;2023-07-31T02:06:40;1.02;;;0.50;;
38717;SDS011;24468;52.128;9.278;2023-07-31T02:09:06;0.35;;;0.25;;
38717;SDS011;24468;52.128;9.278;2023-07-31T02:11:31;0.43;;;0.30;;
38717;SDS011;24468;52.128;9.278;2023-07-31T02:13:57;1.23;;;0.65;;
38717;SDS011;24468;52.128;9.278;2023-07-31T02:16:22;1.27;;;0.50;;
38717;SDS011;24468;52.128;9.278;2023-07-31T02:18:48;1.50;;;0.45;;
38717;SDS011;24468;52.128;9.278;2023-07-31T02:21:13;2.30;;;0.40;;
38717;SDS011;24468;52.128;9.278;2023-07-31T02:23:39;0.68;;;0.30;;
38717;SDS011;24468;52.128;9.278;2023-07-31T02:26:04;1.25;;;0.50;;
38717;SDS011;24468;52.128;9.278;2023-07-31T02:28:30;0.68;;;0.32;;
38717;SDS011;24468;52.128;9.278;2023-07-31T02:30:55;0.40;;;0.30;;
38717;SDS011;24468;52.128;9.278;2023-07-31T02:33:21;0.98;;;0.32;;
38717;SDS011;24468;52.128;9.278;2023-07-31T02:35:46;1.45;;;0.82;;
38717;SDS011;24468;52.128;9.278;2023-07-31T02:38:12;0.50;;;0.40;;
38717;SDS011;24468;52.128;9.278;2023-07-31T02:40:38;2.42;;;0.52;;
38717;SDS011;24468;52.128;9.278;2023-07-31T02:43:06;0.98;;;0.50;;
38717;SDS011;24468;52.128;9.278;2023-07-31T02:45:32;1.65;;;0.80;;
38717;SDS011;24468;52.128;9.278;2023-07-31T02:47:58;2.70;;;0.77;;
38717;SDS011;24468;52.128;9.278;2023-07-31T02:50:23;4.47;;;0.60;;
38717;SDS011;24468;52.128;9.278;2023-07-31T02:52:49;2.25;;;0.45;;
38717;SDS011;24468;52.128;9.278;2023-07-31T02:55:14;0.60;;;0.60;;
38717;SDS011;24468;52.128;9.278;2023-07-31T02:57:40;0.85;;;0.85;;
38717;SDS011;24468;52.128;9.278;2023-07-31T03:00:06;1.80;;;0.57;;
38717;SDS011;24468;52.128;9.278;2023-07-31T03:02:32;0.98;;;0.70;;
38717;SDS011;24468;52.128;9.278;2023-07-31T03:04:57;3.33;;;0.70;;
38717;SDS011;24468;52.128;9.278;2023-07-31T03:07:23;1.13;;;0.70;;
38717;SDS011;24468;52.128;9.278;2023-07-31T03:09:48;0.85;;;0.50;;
38717;SDS011;24468;52.128;9.278;2023-07-31T03:12:14;1.15;;;0.70;;
38717;SDS011;24468;52.128;9.278;2023-07-31T03:14:40;2.95;;;0.88;;
38717;SDS011;24468;52.128;9.278;2023-07-31T03:17:05;2.47;;;0.40;;
38717;SDS011;24468;52.128;9.278;2023-07-31T03:19:31;0.55;;;0.52;;
38717;SDS011;24468;52.128;9.278;2023-07-31T03:21:57;0.60;;;0.50;;
38717;SDS011;24468;52.128;9.278;2023-07-31T03:24:24;0.98;;;0.50;;
38717;SDS011;24468;52.128;9.278;2023-07-31T03:26:50;1.50;;;0.80;;
38717;SDS011;24468;52.128;9.278;2023-07-31T03:29:16;0.93;;;0.63;;
38717;SDS011;24468;52.128;9.278;2023-07-31T03:31:41;1.25;;;0.70;;
38717;SDS011;24468;52.128;9.278;2023-07-31T03:34:07;2.35;;;0.70;;
38717;SDS011;24468;52.128;9.278;2023-07-31T03:36:32;2.70;;;0.80;;
38717;SDS011;24468;52.128;9.278;2023-07-31T03:38:58;0.80;;;0.73;;
38717;SDS011;24468;52.128;9.278;2023-07-31T03:41:24;1.38;;;0.57;;
38717;SDS011;24468;52.128;9.278;2023-07-31T03:43:50;0.43;;;0.20;;
38717;SDS011;24468;52.128;9.278;2023-07-31T03:46:21;0.75;;;0.60;;
38717;SDS011;24468;52.128;9.278;2023-07-31T03:48:47;1.88;;;0.50;;
38717;SDS011;24468;52.128;9.278;2023-07-31T03:51:13;1.52;;;0.43;;
38717;SDS011;24468;52.128;9.278;2023-07-31T03:53:39;1.98;;;0.40;;
38717;SDS011;24468;52.128;9.278;2023-07-31T03:56:04;3.33;;;0.90;;
38717;SDS011;24468;52.128;9.278;2023-07-31T03:58:30;3.40;;;0.65;;
38717;SDS011;24468;52.128;9.278;2023-07-31T04:00:55;2.42;;;0.25;;
38717;SDS011;24468;52.128;9.278;2023-07-31T04:03:21;1.42;;;0.38;;
38717;SDS011;24468;52.128;9.278;2023-07-31T04:05:46;5.53;;;0.60;;
38717;SDS011;24468;52.128;9.278;2023-07-31T04:08:12;0.52;;;0.13;;
38717;SDS011;24468;52.128;9.278;2023-07-31T04:10:37;2.78;;;0.30;;
38717;SDS011;24468;52.128;9.278;2023-07-31T04:13:03;0.50;;;0.32;;
38717;SDS011;24468;52.128;9.278;2023-07-31T04:15:28;0.47;;;0.47;;
38717;SDS011;24468;52.128;9.278;2023-07-31T04:17:54;0.77;;;0.30;;
38717;SDS011;24468;52.128;9.278;2023-07-31T04:20:20;1.27;;;0.80;;
38717;SDS011;24468;52.128;9.278;2023-07-31T04:22:45;4.70;;;0.80;;
38717;SDS011;24468;52.128;9.278;2023-07-31T04:25:11;1.55;;;1.15;;
38717;SDS011;24468;52.128;9.278;2023-07-31T04:27:36;2.70;;;1.80;;
38717;SDS011;24468;52.128;9.278;2023-07-31T04:30:02;2.17;;;1.48;;
38717;SDS011;24468;52.128;9.278;2023-07-31T04:32:28;4.40;;;3.03;;
38717;SDS011;24468;52.128;9.278;2023-07-31T04:34:54;3.78;;;2.25;;
38717;SDS011;24468;52.128;9.278;2023-07-31T04:37:20;4.55;;;3.30;;
38717;SDS011;24468;52.128;9.278;2023-07-31T04:39:46;6.38;;;3.70;;
38717;SDS011;24468;52.128;9.278;2023-07-31T04:42:13;5.22;;;4.40;;
38717;SDS011;24468;52.128;9.278;2023-07-31T04:44:38;6.70;;;3.53;;
38717;SDS011;24468;52.128;9.278;2023-07-31T04:47:04;8.13;;;4.97;;
38717;SDS011;24468;52.128;9.278;2023-07-31T04:49:31;7.72;;;4.53;;
38717;SDS011;24468;52.128;9.278;2023-07-31T04:51:57;6.18;;;4.93;;
38717;SDS011;24468;52.128;9.278;2023-07-31T04:54:23;9.73;;;6.55;;
38717;SDS011;24468;52.128;9.278;2023-07-31T04:56:48;9.88;;;5.28;;
38717;SDS011;24468;52.128;9.278;2023-07-31T04:59:14;7.10;;;4.97;;
38717;SDS011;24468;52.128;9.278;2023-07-31T05:01:39;9.38;;;5.50;;
38717;SDS011;24468;52.128;9.278;2023-07-31T05:04:05;9.70;;;5.97;;
38717;SDS011;24468;52.128;9.278;2023-07-31T05:06:30;7.90;;;4.97;;
38717;SDS011;24468;52.128;9.278;2023-07-31T05:08:56;9.60;;;5.63;;
38717;SDS011;24468;52.128;9.278;2023-07-31T05:11:21;9.35;;;5.28;;
38717;SDS011;24468;52.128;9.278;2023-07-31T05:13:47;7.93;;;5.10;;
38717;SDS011;24468;52.128;9.278;2023-07-31T05:16:12;9.90;;;4.60;;
38717;SDS011;24468;52.128;9.278;2023-07-31T05:18:38;6.40;;;4.80;;
38717;SDS011;24468;52.128;9.278;2023-07-31T05:21:03;7.35;;;4.72;;
38717;SDS011;24468;52.128;9.278;2023-07-31T05:23:29;6.50;;;4.45;;
38717;SDS011;24468;52.128;9.278;2023-07-31T05:26:02;7.68;;;5.18;;
38717;SDS011;24468;52.128;9.278;2023-07-31T05:28:31;8.82;;;4.95;;
38717;SDS011;24468;52.128;9.278;2023-07-31T05:31:00;6.72;;;4.85;;
38717;SDS011;24468;52.128;9.278;2023-07-31T05:33:27;6.03;;;4.38;;
38717;SDS011;24468;52.128;9.278;2023-07-31T05:35:52;6.70;;;4.05;;
38717;SDS011;24468;52.128;9.278;2023-07-31T05:38:18;9.43;;;4.00;;
38717;SDS011;24468;52.128;9.278;2023-07-31T05:40:43;8.43;;;4.55;;
38717;SDS011;24468;52.128;9.278;2023-07-31T05:43:09;7.32;;;5.18;;
38717;SDS011;24468;52.128;9.278;2023-07-31T05:45:35;7.40;;;4.85;;
38717;SDS011;24468;52.128;9.278;2023-07-31T05:48:01;6.97;;;4.93;;
38717;SDS011;24468;52.128;9.278;2023-07-31T05:50:27;10.10;;;6.78;;
38717;SDS011;24468;52.128;9.278;2023-07-31T05:52:53;8.20;;;6.47;;
38717;SDS011;24468;52.128;9.278;2023-07-31T05:55:19;9.20;;;6.10;;
38717;SDS011;24468;52.128;9.278;2023-07-31T05:57:44;9.05;;;6.45;;
38717;SDS011;24468;52.128;9.278;2023-07-31T06:00:11;9.88;;;6.25;;
38717;SDS011;24468;52.128;9.278;2023-07-31T06:02:38;9.20;;;6.88;;
38717;SDS011;24468;52.128;9.278;2023-07-31T06:05:04;10.98;;;6.47;;
38717;SDS011;24468;52.128;9.278;2023-07-31T06:07:31;13.73;;;6.90;;
38717;SDS011;24468;52.128;9.278;2023-07-31T06:09:57;13.88;;;7.43;;
38717;SDS011;24468;52.128;9.278;2023-07-31T06:12:29;12.80;;;7.22;;
38717;SDS011;24468;52.128;9.278;2023-07-31T06:14:56;10.82;;;6.70;;
38717;SDS011;24468;52.128;9.278;2023-07-31T06:17:22;11.95;;;7.35;;
38717;SDS011;24468;52.128;9.278;2023-07-31T06:19:48;12.68;;;8.27;;
38717;SDS011;24468;52.128;9.278;2023-07-31T06:22:15;11.63;;;7.30;;
38717;SDS011;24468;52.128;9.278;2023-07-31T06:24:40;13.23;;;7.38;;
38717;SDS011;24468;52.128;9.278;2023-07-31T06:27:06;15.07;;;6.97;;
38717;SDS011;24468;52.128;9.278;2023-07-31T06:29:32;16.60;;;6.43;;
38717;SDS011;24468;52.128;9.278;2023-07-31T06:31:58;10.32;;;6.53;;
38717;SDS011;24468;52.128;9.278;2023-07-31T06:34:24;9.38;;;6.35;;
38717;SDS011;24468;52.128;9.278;2023-07-31T06:36:50;8.63;;;5.68;;
38717;SDS011;24468;52.128;9.278;2023-07-31T06:39:15;10.00;;;7.00;;
38717;SDS011;24468;52.128;9.278;2023-07-31T06:41:41;10.30;;;6.43;;
38717;SDS011;24468;52.128;9.278;2023-07-31T06:44:07;9.13;;;5.95;;
38717;SDS011;24468;52.128;9.278;2023-07-31T06:46:33;8.07;;;5.78;;
38717;SDS011;24468;52.128;9.278;2023-07-31T06:48:59;9.27;;;5.13;;
38717;SDS011;24468;52.128;9.278;2023-07-31T06:51:24;7.35;;;5.40;;
38717;SDS011;24468;52.128;9.278;2023-07-31T06:53:50;16.05;;;6.32;;
38717;SDS011;24468;52.128;9.278;2023-07-31T06:56:15;9.38;;;5.20;;
38717;SDS011;24468;52.128;9.278;2023-07-31T06:58:41;6.65;;;5.13;;
38717;SDS011;24468;52.128;9.278;2023-07-31T07:01:06;8.98;;;5.00;;
38717;SDS011;24468;52.128;9.278;2023-07-31T07:03:32;11.93;;;5.38;;
38717;SDS011;24468;52.128;9.278;2023-07-31T07:05:58;8.82;;;5.43;;
38717;SDS011;24468;52.128;9.278;2023-07-31T07:08:24;9.35;;;4.65;;
38717;SDS011;24468;52.128;9.278;2023-07-31T07:10:50;17.67;;;6.13;;
38717;SDS011;24468;52.128;9.278;2023-07-31T07:13:15;9.35;;;5.53;;
38717;SDS011;24468;52.128;9.278;2023-07-31T07:15:43;11.13;;;5.32;;
38717;SDS011;24468;52.128;9.278;2023-07-31T07:18:13;8.98;;;4.60;;
38717;SDS011;24468;52.128;9.278;2023-07-31T07:20:39;11.85;;;5.10;;
38717;SDS011;24468;52.128;9.278;2023-07-31T07:23:04;10.90;;;5.18;;
38717;SDS011;24468;52.128;9.278;2023-07-31T07:25:30;10.30;;;5.20;;
38717;SDS011;24468;52.128;9.278;2023-07-31T07:27:56;6.45;;;3.97;;
38717;SDS011;24468;52.128;9.278;2023-07-31T07:30:21;10.07;;;5.10;;
38717;SDS011;24468;52.128;9.278;2023-07-31T07:32:48;8.75;;;5.15;;
38717;SDS011;24468;52.128;9.278;2023-07-31T07:35:14;12.93;;;5.03;;
38717;SDS011;24468;52.128;9.278;2023-07-31T07:37:39;10.02;;;4.75;;
38717;SDS011;24468;52.128;9.278;2023-07-31T07:40:05;10.85;;;5.18;;
38717;SDS011;24468;52.128;9.278;2023-07-31T07:42:31;8.35;;;4.43;;
38717;SDS011;24468;52.128;9.278;2023-07-31T07:44:57;9.77;;;4.95;;
38717;SDS011;24468;52.128;9.278;2023-07-31T07:47:23;10.30;;;4.20;;
38717;SDS011;24468;52.128;9.278;2023-07-31T07:49:48;9.50;;;4.32;;
38717;SDS011;24468;52.128;9.278;2023-07-31T07:52:14;9.18;;;4.78;;
38717;SDS011;24468;52.128;9.278;2023-07-31T07:54:39;9.93;;;4.35;;
38717;SDS011;24468;52.128;9.278;2023-07-31T07:57:05;7.13;;;4.30;;
38717;SDS011;24468;52.128;9.278;2023-07-31T07:59:30;8.25;;;4.55;;
38717;SDS011;24468;52.128;9.278;2023-07-31T08:01:56;5.80;;;4.45;;
38717;SDS011;24468;52.128;9.278;2023-07-31T08:04:22;5.93;;;4.25;;
38717;SDS011;24468;52.128;9.278;2023-07-31T08:06:48;5.38;;;3.65;;
38717;SDS011;24468;52.128;9.278;2023-07-31T08:09:13;7.28;;;4.45;;
38717;SDS011;24468;52.128;9.278;2023-07-31T08:11:39;6.32;;;3.92;;
38717;SDS011;24468;52.128;9.278;2023-07-31T08:14:04;8.18;;;3.60;;
38717;SDS011;24468;52.128;9.278;2023-07-31T08:16:30;8.55;;;4.60;;
38717;SDS011;24468;52.128;9.278;2023-07-31T08:18:56;7.88;;;4.53;;
38717;SDS011;24468;52.128;9.278;2023-07-31T08:21:22;5.70;;;3.90;;
38717;SDS011;24468;52.128;9.278;2023-07-31T08:23:48;19.42;;;4.40;;
38717;SDS011;24468;52.128;9.278;2023-07-31T08:26:15;5.85;;;3.38;;
38717;SDS011;24468;52.128;9.278;2023-07-31T08:28:42;7.50;;;3.88;;
38717;SDS011;24468;52.128;9.278;2023-07-31T08:31:08;4.43;;;3.13;;
38717;SDS011;24468;52.128;9.278;2023-07-31T08:33:33;7.22;;;3.00;;
38717;SDS011;24468;52.128;9.278;2023-07-31T08:35:59;3.83;;;2.90;;
38717;SDS011;24468;52.128;9.278;2023-07-31T08:38:26;3.67;;;2.42;;
38717;SDS011;24468;52.128;9.278;2023-07-31T08:40:51;4.45;;;2.40;;
38717;SDS011;24468;52.128;9.278;2023-07-31T08:43:18;5.32;;;2.30;;
38717;SDS011;24468;52.128;9.278;2023-07-31T08:45:46;5.15;;;2.28;;
38717;SDS011;24468;52.128;9.278;2023-07-31T08:48:12;2.53;;;2.22;;
38717;SDS011;24468;52.128;9.278;2023-07-31T08:50:40;4.70;;;1.42;;
38717;SDS011;24468;52.128;9.278;2023-07-31T08:53:07;3.65;;;1.40;;
38717;SDS011;24468;52.128;9.278;2023-07-31T08:55:32;2.55;;;1.70;;
38717;SDS011;24468;52.128;9.278;2023-07-31T08:57:58;2.85;;;1.17;;
38717;SDS011;24468;52.128;9.278;2023-07-31T09:00:25;5.20;;;1.02;;
38717;SDS011;24468;52.128;9.278;2023-07-31T09:03:02;1.35;;;1.13;;
38717;SDS011;24468;52.128;9.278;2023-07-31T09:05:35;2.70;;;1.45;;
38717;SDS011;24468;52.128;9.278;2023-07-31T09:08:05;1.25;;;1.00;;
38717;SDS011;24468;52.128;9.278;2023-07-31T09:10:30;1.30;;;0.90;;
38717;SDS011;24468;52.128;9.278;2023-07-31T09:12:56;1.20;;;0.90;;
38717;SDS011;24468;52.128;9.278;2023-07-31T09:15:23;3.42;;;1.10;;
38717;SDS011;24468;52.128;9.278;2023-07-31T09:17:50;2.13;;;1.27;;
38717;SDS011;24468;52.128;9.278;2023-07-31T09:20:28;1.30;;;1.20;;
38717;SDS011;24468;52.128;9.278;2023-07-31T09:22:54;0.95;;;0.90;;
38717;SDS011;24468;52.128;9.278;2023-07-31T09:25:21;1.42;;;0.88;;
38717;SDS011;24468;52.128;9.278;2023-07-31T09:28:00;3.25;;;1.55;;
38717;SDS011;24468;52.128;9.278;2023-07-31T09:30:29;2.17;;;1.30;;
38717;SDS011;24468;52.128;9.278;2023-07-31T09:33:02;2.00;;;1.50;;
38717;SDS011;24468;52.128;9.278;2023-07-31T09:35:31;2.13;;;1.58;;
38717;SDS011;24468;52.128;9.278;2023-07-31T09:38:01;5.82;;;1.83;;
38717;SDS011;24468;52.128;9.278;2023-07-31T09:40:34;1.63;;;1.50;;
38717;SDS011;24468;52.128;9.278;2023-07-31T09:43:06;3.00;;;2.20;;
38717;SDS011;24468;52.128;9.278;2023-07-31T09:45:40;2.50;;;1.65;;
38717;SDS011;24468;52.128;9.278;2023-07-31T09:48:14;4.03;;;2.20;;
38717;SDS011;24468;52.128;9.278;2023-07-31T09:50:42;2.13;;;1.73;;
38717;SDS011;24468;52.128;9.278;2023-07-31T09:53:12;2.10;;;1.90;;
38717;SDS011;24468;52.128;9.278;2023-07-31T09:55:39;2.35;;;1.23;;
38717;SDS011;24468;52.128;9.278;2023-07-31T09:58:07;1.80;;;1.45;;
38717;SDS011;24468;52.128;9.278;2023-07-31T10:00:34;2.75;;;2.00;;
38717;SDS011;24468;52.128;9.278;2023-07-31T10:03:01;1.95;;;1.75;;
38717;SDS011;24468;52.128;9.278;2023-07-31T10:05:37;2.63;;;1.98;;
38717;SDS011;24468;52.128;9.278;2023-07-31T10:08:07;1.83;;;1.42;;
38717;SDS011;24468;52.128;9.278;2023-07-31T10:10:36;2.15;;;1.55;;
38717;SDS011;24468;52.128;9.278;2023-07-31T10:13:02;2.75;;;2.00;;
38717;SDS011;24468;52.128;9.278;2023-07-31T10:15:29;2.00;;;1.70;;
38717;SDS011;24468;52.128;9.278;2023-07-31T10:17:56;1.55;;;1.45;;
38717;SDS011;24468;52.128;9.278;2023-07-31T10:20:23;2.42;;;2.00;;
38717;SDS011;24468;52.128;9.278;2023-07-31T10:22:49;2.03;;;1.48;;
38717;SDS011;24468;52.128;9.278;2023-07-31T10:25:16;4.00;;;1.80;;
38717;SDS011;24468;52.128;9.278;2023-07-31T10:27:44;2.60;;;2.05;;
38717;SDS011;24468;52.128;9.278;2023-07-31T10:30:12;3.90;;;2.13;;
38717;SDS011;24468;52.128;9.278;2023-07-31T10:32:43;9.02;;;2.65;;
38717;SDS011;24468;52.128;9.278;2023-07-31T10:35:10;2.65;;;2.10;;
38717;SDS011;24468;52.128;9.278;2023-07-31T10:37:41;2.83;;;1.52;;
38717;SDS011;24468;52.128;9.278;2023-07-31T10:42:47;2.22;;;1.55;;
38717;SDS011;24468;52.128;9.278;2023-07-31T10:45:25;4.45;;;2.00;;
38717;SDS011;24468;52.128;9.278;2023-07-31T10:48:23;3.30;;;1.70;;
38717;SDS011;24468;52.128;9.278;2023-07-31T10:50:49;3.83;;;1.83;;
38717;SDS011;24468;52.128;9.278;2023-07-31T10:53:24;2.40;;;1.80;;
38717;SDS011;24468;52.128;9.278;2023-07-31T10:55:58;2.25;;;2.05;;
38717;SDS011;24468;52.128;9.278;2023-07-31T10:58:29;2.75;;;2.25;;
38717;SDS011;24468;52.128;9.278;2023-07-31T11:00:57;2.13;;;1.63;;
38717;SDS011;24468;52.128;9.278;2023-07-31T11:03:48;3.00;;;1.90;;
38717;SDS011;24468;52.128;9.278;2023-07-31T11:06:17;3.35;;;2.25;;
38717;SDS011;24468;52.128;9.278;2023-07-31T11:08:47;5.88;;;2.45;;
38717;SDS011;24468;52.128;9.278;2023-07-31T11:11:15;3.83;;;2.47;;
38717;SDS011;24468;52.128;9.278;2023-07-31T11:13:50;3.45;;;1.95;;
38717;SDS011;24468;52.128;9.278;2023-07-31T11:16:18;2.40;;;2.20;;
38717;SDS011;24468;52.128;9.278;2023-07-31T11:18:46;4.55;;;2.22;;
38717;SDS011;24468;52.128;9.278;2023-07-31T11:21:14;3.70;;;2.17;;
38717;SDS011;24468;52.128;9.278;2023-07-31T11:23:45;3.92;;;1.80;;
38717;SDS011;24468;52.128;9.278;2023-07-31T11:26:13;3.73;;;2.00;;
38717;SDS011;24468;52.128;9.278;2023-07-31T11:28:39;2.00;;;1.77;;
38717;SDS011;24468;52.128;9.278;2023-07-31T11:31:08;2.47;;;1.80;;
38717;SDS011;24468;52.128;9.278;2023-07-31T11:33:35;3.45;;;2.38;;
38717;SDS011;24468;52.128;9.278;2023-07-31T11:36:00;3.78;;;1.90;;
38717;SDS011;24468;52.128;9.278;2023-07-31T11:40:54;2.17;;;1.80;;
38717;SDS011;24468;52.128;9.278;2023-07-31T11:43:27;1.98;;;1.52;;
38717;SDS011;24468;52.128;9.278;2023-07-31T11:45:57;2.10;;;1.60;;
38717;SDS011;24468;52.128;9.278;2023-07-31T11:48:28;2.05;;;1.30;;
38717;SDS011;24468;52.128;9.278;2023-07-31T11:50:59;1.73;;;1.38;;
38717;SDS011;24468;52.128;9.278;2023-07-31T11:53:45;1.65;;;1.10;;
38717;SDS011;24468;52.128;9.278;2023-07-31T11:56:19;2.65;;;1.40;;
38717;SDS011;24468;52.128;9.278;2023-07-31T11:58:46;1.45;;;1.25;;
38717;SDS011;24468;52.128;9.278;2023-07-31T12:01:15;1.10;;;1.00;;
38717;SDS011;24468;52.128;9.278;2023-07-31T12:03:43;2.05;;;1.02;;
38717;SDS011;24468;52.128;9.278;2023-07-31T12:06:10;1.73;;;1.00;;
38717;SDS011;24468;52.128;9.278;2023-07-31T12:08:36;1.10;;;0.82;;
38717;SDS011;24468;52.128;9.278;2023-07-31T12:11:02;1.10;;;0.95;;
38717;SDS011;24468;52.128;9.278;2023-07-31T12:13:30;0.82;;;0.55;;
38717;SDS011;24468;52.128;9.278;2023-07-31T12:15:58;0.82;;;0.70;;
38717;SDS011;24468;52.128;9.278;2023-07-31T12:18:28;0.67;;;0.60;;
38717;SDS011;24468;52.128;9.278;2023-07-31T12:21:00;0.82;;;0.82;;
38717;SDS011;24468;52.128;9.278;2023-07-31T12:23:28;3.45;;;0.82;;
38717;SDS011;24468;52.128;9.278;2023-07-31T12:26:00;1.35;;;0.73;;
38717;SDS011;24468;52.128;9.278;2023-07-31T12:31:16;0.98;;;0.88;;
38717;SDS011;24468;52.128;9.278;2023-07-31T12:33:46;0.60;;;0.50;;
38717;SDS011;24468;52.128;9.278;2023-07-31T12:36:19;1.23;;;0.68;;
38717;SDS011;24468;52.128;9.278;2023-07-31T12:38:48;1.63;;;0.60;;
38717;SDS011;24468;52.128;9.278;2023-07-31T12:41:16;2.45;;;1.00;;
38717;SDS011;24468;52.128;9.278;2023-07-31T12:43:42;1.48;;;0.80;;
38717;SDS011;24468;52.128;9.278;2023-07-31T12:46:10;0.95;;;0.88;;
38717;SDS011;24468;52.128;9.278;2023-07-31T12:48:37;1.02;;;0.77;;
38717;SDS011;24468;52.128;9.278;2023-07-31T12:51:03;2.67;;;0.80;;
38717;SDS011;24468;52.128;9.278;2023-07-31T12:53:29;0.95;;;0.90;;
38717;SDS011;24468;52.128;9.278;2023-07-31T12:55:55;1.40;;;0.90;;
38717;SDS011;24468;52.128;9.278;2023-07-31T12:58:21;3.10;;;1.00;;
38717;SDS011;24468;52.128;9.278;2023-07-31T13:00:47;1.38;;;0.90;;
38717;SDS011;24468;52.128;9.278;2023-07-31T13:03:13;2.20;;;0.93;;
38717;SDS011;24468;52.128;9.278;2023-07-31T13:05:38;2.42;;;0.90;;
38717;SDS011;24468;52.128;9.278;2023-07-31T13:08:04;1.20;;;1.02;;
38717;SDS011;24468;52.128;9.278;2023-07-31T13:10:30;3.20;;;0.90;;
38717;SDS011;24468;52.128;9.278;2023-07-31T13:12:55;1.90;;;0.90;;
38717;SDS011;24468;52.128;9.278;2023-07-31T13:15:21;0.65;;;0.65;;
38717;SDS011;24468;52.128;9.278;2023-07-31T13:17:47;1.00;;;0.55;;
38717;SDS011;24468;52.128;9.278;2023-07-31T13:20:12;0.70;;;0.68;;
38717;SDS011;24468;52.128;9.278;2023-07-31T13:22:38;0.80;;;0.73;;
38717;SDS011;24468;52.128;9.278;2023-07-31T13:25:04;0.88;;;0.40;;
38717;SDS011;24468;52.128;9.278;2023-07-31T13:27:31;0.50;;;0.50;;
38717;SDS011;24468;52.128;9.278;2023-07-31T13:29:56;1.13;;;0.57;;
38717;SDS011;24468;52.128;9.278;2023-07-31T13:32:22;0.68;;;0.50;;
38717;SDS011;24468;52.128;9.278;2023-07-31T13:34:48;0.50;;;0.45;;
38717;SDS011;24468;52.128;9.278;2023-07-31T13:37:13;0.50;;;0.50;;
38717;SDS011;24468;52.128;9.278;2023-07-31T13:39:39;0.73;;;0.40;;
38717;SDS011;24468;52.128;9.278;2023-07-31T13:42:06;2.88;;;0.50;;
38717;SDS011;24468;52.128;9.278;2023-07-31T13:44:36;0.70;;;0.70;;
38717;SDS011;24468;52.128;9.278;2023-07-31T13:47:02;0.40;;;0.40;;
38717;SDS011;24468;52.128;9.278;2023-07-31T13:49:29;1.10;;;0.90;;
38717;SDS011;24468;52.128;9.278;2023-07-31T13:51:55;0.75;;;0.70;;
38717;SDS011;24468;52.128;9.278;2023-07-31T13:54:21;1.00;;;0.90;;
38717;SDS011;24468;52.128;9.278;2023-07-31T13:56:48;2.15;;;1.42;;
38717;SDS011;24468;52.128;9.278;2023-07-31T13:59:13;1.70;;;1.20;;
38717;SDS011;24468;52.128;9.278;2023-07-31T14:01:41;1.20;;;1.10;;
38717;SDS011;24468;52.128;9.278;2023-07-31T14:04:06;1.98;;;1.73;;
38717;SDS011;24468;52.128;9.278;2023-07-31T14:06:32;1.75;;;1.65;;
38717;SDS011;24468;52.128;9.278;2023-07-31T14:08:57;1.25;;;1.15;;
38717;SDS011;24468;52.128;9.278;2023-07-31T14:11:23;2.83;;;1.88;;
38717;SDS011;24468;52.128;9.278;2023-07-31T14:13:50;1.35;;;1.25;;
38717;SDS011;24468;52.128;9.278;2023-07-31T14:16:15;1.73;;;1.40;;
38717;SDS011;24468;52.128;9.278;2023-07-31T14:18:42;1.85;;;1.60;;
38717;SDS011;24468;52.128;9.278;2023-07-31T14:21:08;2.03;;;1.42;;
38717;SDS011;24468;52.128;9.278;2023-07-31T14:23:34;2.17;;;1.70;;
38717;SDS011;24468;52.128;9.278;2023-07-31T14:25:59;2.42;;;1.88;;
38717;SDS011;24468;52.128;9.278;2023-07-31T14:28:25;2.35;;;1.70;;
38717;SDS011;24468;52.128;9.278;2023-07-31T14:30:50;3.00;;;1.50;;
38717;SDS011;24468;52.128;9.278;2023-07-31T14:33:16;1.90;;;1.58;;
38717;SDS011;24468;52.128;9.278;2023-07-31T14:35:42;2.08;;;1.65;;
38717;SDS011;24468;52.128;9.278;2023-07-31T14:38:07;1.42;;;1.33;;
38717;SDS011;24468;52.128;9.278;2023-07-31T14:40:33;3.42;;;1.52;;
38717;SDS011;24468;52.128;9.278;2023-07-31T14:42:58;1.50;;;1.38;;
38717;SDS011;24468;52.128;9.278;2023-07-31T14:45:24;4.15;;;2.00;;
38717;SDS011;24468;52.128;9.278;2023-07-31T14:47:50;2.25;;;1.92;;
38717;SDS011;24468;52.128;9.278;2023-07-31T14:50:15;2.55;;;1.67;;
38717;SDS011;24468;52.128;9.278;2023-07-31T14:52:41;1.65;;;1.40;;
38717;SDS011;24468;52.128;9.278;2023-07-31T14:55:07;1.90;;;1.65;;
38717;SDS011;24468;52.128;9.278;2023-07-31T14:57:34;3.10;;;1.52;;
38717;SDS011;24468;52.128;9.278;2023-07-31T14:59:59;2.72;;;1.75;;